Time;durP1;ratioP1;P1;durP2;ratioP2;P2;SDS_P1;SDS_P2;PMS_P1;PMS_P2;Temp;Humidity;BMP_temperature;BMP_pressure;BME280_temperature;BME280_humidity;BME280_pressure;Samples;Min_cycle;Max_cycle;Signal;HPM_P1;HPM_P2
2022/01/02 00:00:10;;;;;;;17.60;11.00;;;;;;;7.53;85.89;97984.59;110170;1250;68782;-66
2022/01/02 00:03:04;;;;;;;14.20;10.10;;;;;;;7.56;85.99;97986.88;110154;1247;69245;-65
2022/01/02 00:05:38;;;;;;;12.60;8.60;;;;;;;7.56;85.91;97989.98;110180;1247;58858;-66
2022/01/02 00:08:10;;;;;;;17.00;10.50;;;;;;;7.57;85.94;97992.89;110130;1250;58951;-71
2022/01/02 00:10:58;;;;;;;17.10;10.80;;;;;;;7.58;85.87;97995.44;110234;1248;70770;-66
2022/01/02 00:13:35;;;;;;;10.70;7.50;;;;;;;7.58;85.70;97993.88;110069;1250;68780;-66
2022/01/02 00:16:06;;;;;;;17.30;12.00;;;;;;;7.57;85.81;97992.16;110152;1250;69319;-66
2022/01/02 00:18:47;;;;;;;15.20;10.60;;;;;;;7.57;85.76;97997.38;110181;1248;58884;-66
2022/01/02 00:21:17;;;;;;;16.80;10.30;;;;;;;7.54;85.84;97995.62;110205;1248;58954;-67
2022/01/02 00:23:57;;;;;;;17.50;11.70;;;;;;;7.53;85.78;97996.02;110244;1250;70540;-66
2022/01/02 00:26:36;;;;;;;12.40;8.50;;;;;;;7.53;85.68;97999.14;110058;1250;67686;-66
2022/01/02 00:29:07;;;;;;;15.00;9.40;;;;;;;7.52;85.77;97995.75;110145;1250;69459;-66
2022/01/02 00:31:37;;;;;;;17.30;11.70;;;;;;;7.51;85.59;98001.17;110161;1250;58866;-66
2022/01/02 00:34:08;;;;;;;14.00;10.60;;;;;;;7.52;85.65;97999.75;110207;1248;58890;-66
2022/01/02 00:36:38;;;;;;;15.40;9.00;;;;;;;7.52;85.58;97997.48;110229;1247;70818;-66
2022/01/02 00:39:07;;;;;;;13.40;8.70;;;;;;;7.52;85.48;97993.80;110178;1250;68549;-64
2022/01/02 00:41:49;;;;;;;13.50;8.70;;;;;;;7.53;85.33;97991.34;110203;1247;69538;-65
2022/01/02 00:44:32;;;;;;;12.30;8.00;;;;;;;7.53;85.28;97991.71;110217;1247;58955;-68
2022/01/02 00:47:27;;;;;;;13.70;8.30;;;;;;;7.54;85.32;97996.71;110152;1251;58966;-65
2022/01/02 00:50:14;;;;;;;12.20;8.60;;;;;;;7.55;85.28;97997.17;110012;1250;70822;-65
2022/01/02 00:52:47;;;;;;;14.20;8.40;;;;;;;7.54;85.23;97993.24;110240;1248;68689;-65
2022/01/02 00:55:22;;;;;;;12.60;7.40;;;;;;;7.54;85.15;97995.30;110226;1250;69521;-66
2022/01/02 00:58:01;;;;;;;11.90;7.70;;;;;;;7.53;85.18;97998.12;110202;1248;58885;-65
2022/01/02 01:00:31;;;;;;;10.00;7.10;;;;;;;7.53;85.07;97992.55;110295;1248;58917;-65
2022/01/02 01:03:09;;;;;;;11.30;7.60;;;;;;;7.53;85.07;97991.17;110217;1250;70051;-65
2022/01/02 01:05:40;;;;;;;15.00;7.80;;;;;;;7.54;84.90;97994.27;110101;1248;67952;-66
2022/01/02 01:08:09;;;;;;;11.70;8.00;;;;;;;7.52;84.91;97992.43;110285;1248;69236;-66
2022/01/02 01:10:43;;;;;;;12.40;8.20;;;;;;;7.52;84.81;97989.83;110070;1250;58873;-67
2022/01/02 01:13:12;;;;;;;11.10;7.70;;;;;;;7.51;84.77;97986.59;110237;1250;58862;-67
2022/01/02 01:15:42;;;;;;;10.90;7.60;;;;;;;7.50;84.61;97982.50;110208;1247;71015;-66
2022/01/02 01:18:11;;;;;;;10.50;6.80;;;;;;;7.51;84.54;97981.59;110202;1250;67852;-67
2022/01/02 01:20:43;;;;;;;11.00;7.70;;;;;;;7.50;84.64;97988.73;110159;1249;68501;-65
2022/01/02 01:23:16;;;;;;;9.70;7.30;;;;;;;7.48;84.19;97990.58;110105;1250;58943;-65
2022/01/02 01:25:49;;;;;;;11.00;7.10;;;;;;;7.49;84.33;97987.23;110209;1247;58862;-66
2022/01/02 01:28:19;;;;;;;9.10;6.10;;;;;;;7.51;83.88;97988.02;110239;1247;70743;-66
2022/01/02 01:30:48;;;;;;;10.20;6.60;;;;;;;7.50;83.70;97988.20;110073;1250;67434;-66
2022/01/02 01:33:17;;;;;;;;;;;;;;;7.50;83.76;97995.71;110041;1251;69883;-69
2022/01/02 01:35:47;;;;;;;9.00;6.10;;;;;;;7.50;83.66;97995.02;109957;1249;58939;-67
2022/01/02 01:38:16;;;;;;;10.70;6.20;;;;;;;7.49;83.71;97999.73;110205;1248;58961;-66
2022/01/02 01:41:09;;;;;;;10.30;7.50;;;;;;;7.47;83.76;97997.53;110176;1250;70727;-68
2022/01/02 01:43:53;;;;;;;10.00;6.10;;;;;;;7.43;83.32;97997.08;110070;1250;68551;-66
2022/01/02 01:46:22;;;;;;;7.70;4.80;;;;;;;7.43;83.70;98000.52;109900;1251;68010;-67
2022/01/02 01:48:55;;;;;;;8.80;6.20;;;;;;;7.43;83.66;98005.21;110160;1248;58900;-67
2022/01/02 01:51:24;;;;;;;8.30;5.80;;;;;;;7.43;83.72;98008.70;110141;1250;58866;-65
2022/01/02 01:53:54;;;;;;;;;;;;;;;7.43;83.65;98012.37;110238;1248;69839;-66
2022/01/02 01:56:23;;;;;;;9.60;5.70;;;;;;;7.41;83.48;98012.11;110014;1248;68649;-66
2022/01/02 01:58:53;;;;;;;7.70;6.00;;;;;;;7.40;83.51;98010.22;109897;1251;69544;-65
2022/01/02 02:01:23;;;;;;;10.50;6.60;;;;;;;7.40;83.51;98007.13;110035;1250;58790;-68
2022/01/02 02:03:53;;;;;;;8.70;5.30;;;;;;;7.39;83.62;98009.75;109945;1250;58929;-67
2022/01/02 02:06:23;;;;;;;10.50;6.20;;;;;;;7.39;83.28;98007.68;110144;1250;70056;-67
2022/01/02 02:08:59;;;;;;;9.00;6.00;;;;;;;7.37;83.45;98010.19;110190;1250;67753;-65
2022/01/02 02:11:30;;;;;;;9.40;6.30;;;;;;;7.38;83.46;98009.30;110182;1247;69241;-66
2022/01/02 02:14:01;;;;;;;7.50;5.10;;;;;;;7.37;83.54;98013.69;110135;1249;58897;-66
2022/01/02 02:16:32;;;;;;;7.00;5.10;;;;;;;7.36;83.50;98015.62;110042;1250;58956;-68
2022/01/02 02:19:03;;;;;;;6.20;4.00;;;;;;;7.35;83.66;98014.46;110171;1248;70699;-68
2022/01/02 02:21:35;;;;;;;9.10;5.80;;;;;;;7.33;83.71;98015.42;110054;1251;68458;-68
2022/01/02 02:24:06;;;;;;;9.30;6.10;;;;;;;7.32;83.72;98014.80;109982;1250;68846;-68
2022/01/02 02:26:38;;;;;;;11.90;8.00;;;;;;;7.30;83.72;98014.90;110186;1248;58866;-66
2022/01/02 02:29:07;;;;;;;8.00;5.20;;;;;;;7.27;83.51;98016.13;110161;1248;58863;-68
2022/01/02 02:31:37;;;;;;;8.30;5.10;;;;;;;7.26;83.75;98013.40;110216;1247;70696;-68
2022/01/02 02:34:07;;;;;;;9.10;6.00;;;;;;;7.26;83.85;98015.29;110191;1249;67789;-65
2022/01/02 02:36:36;;;;;;;;;;;;;;;7.27;83.89;98018.39;110208;1247;68211;-66
2022/01/02 02:39:07;;;;;;;7.70;5.40;;;;;;;7.27;83.80;98021.67;110261;1247;58881;-67
2022/01/02 02:41:39;;;;;;;9.80;6.40;;;;;;;7.27;83.75;98020.27;110233;1247;58930;-69
2022/01/02 02:44:21;;;;;;;11.30;7.60;;;;;;;7.26;83.84;98023.79;110216;1247;70698;-68
2022/01/02 02:49:39;;;;;;;8.80;5.80;;;;;;;7.22;83.85;98024.87;110227;1247;68890;-65
2022/01/02 02:52:22;;;;;;;7.00;4.70;;;;;;;7.21;83.86;98017.95;110083;1250;58917;-65
2022/01/02 02:54:54;;;;;;;9.00;5.10;;;;;;;7.22;83.93;98019.67;109978;1250;58866;-66
2022/01/02 02:57:25;;;;;;;7.50;5.00;;;;;;;7.21;83.85;98020.38;110027;1250;71009;-67
2022/01/02 02:59:54;;;;;;;10.80;7.50;;;;;;;7.21;83.85;98013.96;110031;1251;67814;-64
2022/01/02 03:02:25;;;;;;;10.00;6.50;;;;;;;7.17;83.68;98012.42;109999;1250;69437;-65
2022/01/02 03:04:55;;;;;;;11.40;7.70;;;;;;;7.14;83.65;98015.32;110158;1250;58946;-65
2022/01/02 03:07:25;;;;;;;10.90;7.80;;;;;;;7.13;83.72;98015.22;110239;1247;58895;-65
2022/01/02 03:09:58;;;;;;;8.40;6.10;;;;;;;7.10;83.95;98018.48;110220;1250;70689;-65
2022/01/02 03:12:29;;;;;;;10.00;7.00;;;;;;;7.09;83.92;98021.50;110021;1249;68673;-66
2022/01/02 03:15:00;;;;;;;8.60;6.40;;;;;;;7.06;84.06;98027.19;110170;1250;69461;-65
2022/01/02 03:17:31;;;;;;;10.10;6.50;;;;;;;6.99;84.07;98031.32;110074;1251;58850;-71
2022/01/02 03:20:01;;;;;;;14.80;9.50;;;;;;;6.91;84.28;98026.86;110197;1250;58854;-68
2022/01/02 03:22:31;;;;;;;11.80;7.70;;;;;;;6.82;84.55;98024.54;110081;1248;69886;-69
2022/01/02 03:25:01;;;;;;;8.80;5.90;;;;;;;6.72;84.53;98023.78;110225;1247;68419;-68
2022/01/02 03:27:32;;;;;;;;;;;;;;;6.65;84.64;98024.14;110133;1247;69264;-68
2022/01/02 03:30:02;;;;;;;10.80;7.10;;;;;;;6.53;84.77;98025.73;110197;1248;58935;-70
2022/01/02 03:32:32;;;;;;;11.30;7.70;;;;;;;6.42;84.92;98037.14;110251;1247;58871;-70
2022/01/02 03:35:01;;;;;;;8.80;6.30;;;;;;;6.37;84.96;98046.89;110214;1247;70585;-68
2022/01/02 03:37:33;;;;;;;12.40;8.40;;;;;;;6.35;84.92;98049.23;110190;1250;67647;-68
2022/01/02 03:40:06;;;;;;;11.20;7.30;;;;;;;6.35;85.00;98049.08;110153;1250;69358;-69
2022/01/02 03:42:36;;;;;;;12.40;6.90;;;;;;;6.35;84.87;98049.56;110185;1250;58954;-69
2022/01/02 03:45:07;;;;;;;13.80;8.30;;;;;;;6.37;84.91;98050.34;110251;1247;58825;-67
2022/01/02 03:47:37;;;;;;;9.60;6.50;;;;;;;6.38;85.10;98055.31;110251;1247;70532;-67
2022/01/02 03:50:08;;;;;;;10.40;6.60;;;;;;;6.42;84.92;98056.02;110194;1250;67681;-66
2022/01/02 03:52:38;;;;;;;10.90;7.80;;;;;;;6.44;84.88;98064.44;109833;1250;69245;-66
2022/01/02 03:55:09;;;;;;;10.40;6.40;;;;;;;6.40;84.84;98060.59;110034;1247;58758;-69
2022/01/02 03:57:39;;;;;;;9.00;6.20;;;;;;;6.38;84.83;98060.02;110175;1248;58866;-67
2022/01/02 04:00:13;;;;;;;10.10;6.90;;;;;;;6.35;84.87;98064.48;110303;1247;70667;-66
2022/01/02 04:02:44;;;;;;;10.70;6.80;;;;;;;6.34;84.85;98064.70;110203;1248;68559;-68
2022/01/02 04:05:16;;;;;;;7.50;5.40;;;;;;;6.34;84.83;98063.83;110058;1250;68622;-66
2022/01/02 04:07:48;;;;;;;14.70;8.80;;;;;;;6.34;84.75;98063.83;110170;1247;58954;-67
2022/01/02 04:10:18;;;;;;;12.80;8.00;;;;;;;6.34;84.69;98064.00;110181;1250;58811;-69
2022/01/02 04:12:48;;;;;;;12.00;7.60;;;;;;;6.33;84.76;98063.53;110153;1250;70593;-68
2022/01/02 04:15:18;;;;;;;9.30;6.40;;;;;;;6.31;84.64;98058.44;110005;1250;69012;-69
2022/01/02 04:17:48;;;;;;;8.70;6.10;;;;;;;6.29;84.58;98064.21;110180;1247;68929;-69
2022/01/02 04:20:17;;;;;;;11.90;7.30;;;;;;;6.26;84.54;98064.38;110035;1250;58949;-68
2022/01/02 04:22:47;;;;;;;11.40;7.50;;;;;;;6.17;84.57;98065.14;110216;1250;58889;-69
2022/01/02 04:25:17;;;;;;;8.80;6.10;;;;;;;6.09;84.74;98070.17;110074;1248;70797;-68
2022/01/02 04:27:46;;;;;;;14.50;8.20;;;;;;;6.01;85.12;98073.44;110196;1247;68524;-69
2022/01/02 04:30:15;;;;;;;15.70;8.80;;;;;;;5.94;85.46;98070.27;110253;1247;69266;-67
2022/01/02 04:32:44;;;;;;;10.30;7.50;;;;;;;5.91;85.27;98072.82;110199;1247;58919;-67
2022/01/02 04:35:15;;;;;;;8.60;5.30;;;;;;;5.88;85.21;98076.56;110233;1247;58986;-68
2022/01/02 04:37:44;;;;;;;14.40;8.80;;;;;;;5.86;85.37;98076.98;110219;1247;70718;-67
2022/01/02 04:40:14;;;;;;;10.40;5.90;;;;;;;5.85;85.82;98082.05;110227;1250;68526;-68
2022/01/02 04:42:44;;;;;;;6.40;4.70;;;;;;;5.87;85.51;98083.86;110264;1247;68668;-68
2022/01/02 04:45:13;;;;;;;13.10;8.10;;;;;;;5.89;85.61;98080.70;110224;1247;58933;-65
2022/01/02 04:47:42;;;;;;;11.50;7.70;;;;;;;5.91;85.40;98085.79;110226;1247;58870;-65
2022/01/02 04:50:11;;;;;;;10.30;7.30;;;;;;;5.91;85.39;98093.23;110177;1249;70712;-63
2022/01/02 04:52:41;;;;;;;12.70;7.60;;;;;;;5.94;85.21;98095.05;110131;1249;67940;-65
2022/01/02 04:55:10;;;;;;;13.20;8.40;;;;;;;5.94;85.09;98094.15;110147;1249;68772;-65
2022/01/02 04:57:40;;;;;;;8.20;5.80;;;;;;;5.92;85.10;98099.92;110203;1247;58964;-66
2022/01/02 05:00:10;;;;;;;8.70;5.90;;;;;;;5.90;85.11;98099.63;110210;1247;58867;-65
2022/01/02 05:02:39;;;;;;;;;;;;;;;5.86;85.27;98103.64;110244;1247;70835;-66
2022/01/02 05:05:09;;;;;;;13.60;9.20;;;;;;;5.83;85.50;98107.94;110207;1248;67647;-65
2022/01/02 05:07:39;;;;;;;13.00;7.80;;;;;;;5.80;85.74;98111.67;110046;1248;68806;-65
2022/01/02 05:10:10;;;;;;;13.20;8.70;;;;;;;5.76;86.03;98115.30;110082;1250;58956;-64
2022/01/02 05:12:41;;;;;;;10.80;6.80;;;;;;;5.72;86.30;98119.27;110028;1249;58915;-65
2022/01/02 05:15:10;;;;;;;9.70;6.30;;;;;;;5.72;86.11;98121.02;110057;1248;70700;-67
2022/01/02 05:17:39;;;;;;;15.20;9.70;;;;;;;5.71;86.40;98112.91;110204;1247;67454;-66
2022/01/02 05:20:09;;;;;;;13.50;9.10;;;;;;;5.70;86.55;98108.98;110238;1247;69277;-67
2022/01/02 05:22:39;;;;;;;;;;;;;;;5.66;86.64;98109.67;109856;1247;58937;-69
2022/01/02 05:25:09;;;;;;;13.40;8.50;;;;;;;5.64;86.79;98108.91;109923;1250;58868;-68
2022/01/02 05:27:38;;;;;;;13.20;8.30;;;;;;;5.53;87.17;98108.83;110025;1248;70770;-66
2022/01/02 05:30:08;;;;;;;13.00;7.40;;;;;;;5.51;87.00;98115.48;110050;1247;68607;-67
2022/01/02 05:32:39;;;;;;;9.70;5.80;;;;;;;5.51;86.59;98115.81;110024;1247;69200;-69
2022/01/02 05:35:08;;;;;;;;;;;;;;;5.50;86.48;98119.00;110048;1247;58907;-69
2022/01/02 05:37:38;;;;;;;11.20;6.60;;;;;;;5.48;86.56;98123.91;110253;1247;58847;-68
2022/01/02 05:40:08;;;;;;;8.90;5.50;;;;;;;5.47;86.61;98121.34;110211;1248;70560;-67
2022/01/02 05:42:38;;;;;;;9.80;7.00;;;;;;;5.46;86.58;98125.89;110003;1251;67733;-67
2022/01/02 05:45:08;;;;;;;10.20;6.40;;;;;;;5.45;86.55;98114.34;110120;1249;68756;-67
2022/01/02 05:47:38;;;;;;;9.70;6.90;;;;;;;5.45;86.39;98116.41;110123;1249;59341;-67
2022/01/02 05:50:07;;;;;;;11.70;7.70;;;;;;;5.44;86.36;98122.83;110143;1249;58878;-68
2022/01/02 05:52:38;;;;;;;9.90;6.30;;;;;;;5.43;86.58;98122.75;110299;1248;70729;-66
2022/01/02 05:55:08;;;;;;;11.60;7.30;;;;;;;5.41;86.24;98116.75;110061;1247;68503;-68
2022/01/02 05:57:38;;;;;;;12.00;7.10;;;;;;;5.40;86.20;98117.83;110061;1247;69243;-66
2022/01/02 06:00:09;;;;;;;10.10;6.30;;;;;;;5.41;86.36;98122.64;110055;1248;59016;-67
2022/01/02 06:02:41;;;;;;;10.40;6.00;;;;;;;5.41;86.37;98123.51;110036;1247;58929;-66
2022/01/02 06:05:12;;;;;;;13.30;8.10;;;;;;;5.40;86.55;98124.40;110238;1247;69951;-65
2022/01/02 06:07:41;;;;;;;10.50;6.80;;;;;;;5.38;86.70;98128.66;110013;1247;69178;-66
2022/01/02 06:10:11;;;;;;;9.10;5.80;;;;;;;5.36;86.47;98135.61;110244;1247;69432;-64
2022/01/02 06:12:41;;;;;;;10.20;6.80;;;;;;;5.35;86.34;98145.83;110231;1247;58884;-66
2022/01/02 06:15:10;;;;;;;13.40;8.50;;;;;;;5.38;86.59;98152.17;110253;1247;58829;-65
2022/01/02 06:17:40;;;;;;;10.60;6.90;;;;;;;5.39;86.41;98154.88;110132;1247;69964;-67
2022/01/02 06:20:10;;;;;;;10.60;6.60;;;;;;;5.41;86.45;98154.97;109999;1247;67791;-65
2022/01/02 06:22:39;;;;;;;10.80;7.10;;;;;;;5.42;86.21;98156.31;110047;1247;68475;-66
2022/01/02 06:25:09;;;;;;;11.00;6.60;;;;;;;5.39;86.11;98155.21;109890;1250;58926;-69
2022/01/02 06:27:39;;;;;;;11.90;8.50;;;;;;;5.35;86.00;98151.92;109830;1250;58902;-65
2022/01/02 06:30:09;;;;;;;9.90;6.60;;;;;;;5.30;85.89;98148.65;109974;1248;70697;-65
2022/01/02 06:32:39;;;;;;;8.60;5.90;;;;;;;5.23;85.81;98152.23;109779;1250;67287;-64
2022/01/02 06:35:09;;;;;;;8.70;6.00;;;;;;;5.18;85.70;98153.13;110034;1247;69542;-65
2022/01/02 06:37:39;;;;;;;8.20;5.80;;;;;;;5.13;85.62;98161.97;110008;1247;58917;-66
2022/01/02 06:40:09;;;;;;;10.50;6.50;;;;;;;5.08;85.64;98163.69;109967;1247;58885;-66
2022/01/02 06:42:38;;;;;;;10.30;6.40;;;;;;;5.04;85.57;98169.54;110045;1247;70960;-65
2022/01/02 06:45:08;;;;;;;7.60;5.70;;;;;;;5.03;85.67;98168.72;110244;1247;67626;-66
2022/01/02 06:47:37;;;;;;;8.70;5.80;;;;;;;5.03;85.57;98169.59;110118;1247;69515;-64
2022/01/02 06:50:08;;;;;;;8.80;5.80;;;;;;;5.04;85.55;98174.39;110116;1250;58950;-65
2022/01/02 06:52:39;;;;;;;7.00;5.60;;;;;;;5.06;85.55;98180.70;110061;1250;58893;-65
2022/01/02 06:55:08;;;;;;;;;;;;;;;5.09;85.46;98180.91;110219;1247;69064;-65
2022/01/02 06:57:37;;;;;;;9.30;5.90;;;;;;;5.15;85.22;98184.34;110031;1247;68399;-69
2022/01/02 07:00:07;;;;;;;13.10;8.90;;;;;;;5.19;84.78;98182.98;110047;1250;69577;-65
2022/01/02 07:02:36;;;;;;;16.70;11.00;;;;;;;5.23;84.53;98183.83;109834;1250;58959;-65
2022/01/02 07:05:07;;;;;;;14.90;10.30;;;;;;;5.30;84.53;98179.39;109947;1251;58868;-65
2022/01/02 07:07:43;;;;;;;18.20;13.20;;;;;;;5.41;84.84;98177.25;110185;1247;70161;-66
2022/01/02 07:10:14;;;;;;;16.20;10.20;;;;;;;5.63;84.73;98178.27;110212;1247;68383;-65
2022/01/02 07:12:43;;;;;;;15.10;9.70;;;;;;;6.03;84.81;98187.19;110234;1247;68772;-65
2022/01/02 07:15:12;;;;;;;12.40;9.20;;;;;;;6.47;83.73;98181.30;110222;1247;58875;-65
2022/01/02 07:17:41;;;;;;;17.30;11.30;;;;;;;6.94;83.13;98178.86;110223;1247;58926;-68
2022/01/02 07:20:12;;;;;;;10.90;7.80;;;;;;;7.47;81.40;98186.42;110200;1247;71386;-68
2022/01/02 07:22:42;;;;;;;13.20;7.90;;;;;;;8.05;80.34;98189.51;110242;1247;69347;-68
2022/01/02 07:25:11;;;;;;;;;;;;;;;8.63;78.80;98193.85;110171;1248;68511;-69
2022/01/02 07:27:40;;;;;;;13.60;9.40;;;;;;;9.08;78.52;98191.94;110072;1249;58916;-69
2022/01/02 07:30:09;;;;;;;15.20;10.80;;;;;;;9.49;75.24;98189.20;110118;1250;58885;-67
2022/01/02 07:32:39;;;;;;;13.80;9.30;;;;;;;9.86;73.40;98191.60;110163;1247;70775;-68
2022/01/02 07:35:09;;;;;;;16.50;12.60;;;;;;;10.25;73.63;98192.98;110228;1247;68811;-67
2022/01/02 07:37:38;;;;;;;20.40;14.90;;;;;;;10.63;68.91;98191.06;110168;1247;68725;-67
2022/01/02 07:40:08;;;;;;;19.40;14.10;;;;;;;10.79;65.67;98188.70;110179;1247;58928;-68
2022/01/02 07:42:37;;;;;;;;;;;;;;;10.70;66.77;98190.26;110253;1248;58896;-69
2022/01/02 07:45:09;;;;;;;16.10;12.20;;;;;;;11.04;68.92;98188.77;110201;1247;69802;-68
2022/01/02 07:47:39;;;;;;;21.60;15.90;;;;;;;11.50;68.80;98187.42;110188;1247;68714;-68
2022/01/02 07:50:09;;;;;;;19.70;14.20;;;;;;;11.87;65.06;98189.58;110147;1250;69424;-70
2022/01/02 07:52:38;;;;;;;22.70;18.90;;;;;;;12.28;66.54;98194.36;110122;1249;58941;-70
2022/01/02 07:55:07;;;;;;;35.30;28.10;;;;;;;12.70;59.95;98190.97;110197;1247;58944;-67
2022/01/02 07:57:36;;;;;;;25.50;19.20;;;;;;;13.08;59.98;98191.13;110243;1247;70707;-68
2022/01/02 08:00:06;;;;;;;24.60;17.70;;;;;;;13.10;56.57;98197.10;110208;1247;68762;-69
2022/01/02 08:02:40;;;;;;;20.80;16.80;;;;;;;12.74;58.79;98199.06;110138;1248;69512;-66
2022/01/02 08:05:12;;;;;;;26.30;19.10;;;;;;;12.08;60.00;98193.06;110149;1247;58953;-66
2022/01/02 08:07:42;;;;;;;26.60;20.40;;;;;;;10.85;63.08;98193.89;110146;1247;58917;-67
2022/01/02 08:10:11;;;;;;;22.00;17.60;;;;;;;10.06;65.80;98192.55;110173;1248;70681;-66
2022/01/02 08:12:40;;;;;;;21.90;16.60;;;;;;;9.64;67.85;98191.10;110198;1250;68584;-69
2022/01/02 08:15:09;;;;;;;18.00;12.70;;;;;;;9.45;69.19;98189.89;110129;1248;68761;-69
2022/01/02 08:17:38;;;;;;;10.50;8.50;;;;;;;9.50;68.98;98193.28;110124;1250;58944;-66
2022/01/02 08:20:09;;;;;;;11.40;8.30;;;;;;;9.34;68.14;98189.80;110142;1249;58864;-65
2022/01/02 08:22:44;;;;;;;11.20;7.50;;;;;;;9.09;68.79;98190.48;110177;1247;69808;-68
2022/01/02 08:25:13;;;;;;;12.50;8.90;;;;;;;9.05;69.01;98192.98;110198;1247;69157;-68
2022/01/02 08:27:42;;;;;;;8.30;6.20;;;;;;;9.00;69.89;98196.05;110135;1249;69442;-67
2022/01/02 08:30:11;;;;;;;8.80;6.70;;;;;;;9.26;70.33;98199.48;110196;1248;58883;-66
2022/01/02 08:32:40;;;;;;;9.20;6.80;;;;;;;9.75;68.90;98201.09;110162;1247;58867;-67
2022/01/02 08:35:09;;;;;;;10.50;8.20;;;;;;;10.15;66.55;98202.98;110124;1248;70979;-67
2022/01/02 08:37:39;;;;;;;10.60;7.60;;;;;;;10.35;66.81;98207.72;110160;1248;68586;-68
2022/01/02 08:40:09;;;;;;;9.70;6.60;;;;;;;10.75;65.63;98213.86;110136;1247;69306;-67
2022/01/02 08:42:38;;;;;;;8.20;6.10;;;;;;;10.90;66.52;98214.53;110163;1247;58937;-69
2022/01/02 08:45:07;;;;;;;9.40;6.20;;;;;;;11.13;66.46;98215.57;110168;1247;58948;-67
2022/01/02 08:47:36;;;;;;;6.70;4.40;;;;;;;11.18;66.22;98210.00;110170;1248;70745;-68
2022/01/02 08:50:05;;;;;;;7.60;5.40;;;;;;;11.18;66.44;98208.41;110149;1250;67814;-70
2022/01/02 08:52:35;;;;;;;7.60;6.00;;;;;;;11.10;65.82;98204.21;110110;1248;69415;-70
2022/01/02 08:55:05;;;;;;;7.50;5.60;;;;;;;10.94;64.98;98210.14;110116;1250;59037;-68
2022/01/02 08:57:34;;;;;;;7.10;5.20;;;;;;;10.70;64.88;98211.04;110038;1247;58914;-66
2022/01/02 09:00:05;;;;;;;7.80;5.60;;;;;;;10.61;65.59;98221.19;110165;1248;69480;-69
2022/01/02 09:02:34;;;;;;;9.40;6.50;;;;;;;10.64;65.30;98217.48;110125;1248;68619;-66
2022/01/02 09:05:03;;;;;;;8.60;5.60;;;;;;;10.57;65.21;98215.33;110269;1247;69762;-65
2022/01/02 09:07:32;;;;;;;8.80;5.30;;;;;;;10.31;65.63;98214.62;110118;1248;58905;-68
2022/01/02 09:10:02;;;;;;;7.20;4.70;;;;;;;10.12;66.28;98219.55;110028;1250;58895;-68
2022/01/02 09:12:31;;;;;;;8.40;5.50;;;;;;;9.92;66.35;98209.20;110043;1248;306270;-67
2022/01/02 09:15:00;;;;;;;8.50;5.50;;;;;;;9.77;67.18;98201.48;110249;1247;67889;-67
2022/01/02 09:17:29;;;;;;;13.50;10.90;;;;;;;9.71;67.26;98196.45;110216;1247;68733;-68
2022/01/02 09:19:58;;;;;;;8.90;6.60;;;;;;;9.62;67.57;98192.77;110252;1247;58876;-69
2022/01/02 09:22:27;;;;;;;6.60;5.00;;;;;;;9.61;68.39;98188.67;110117;1250;58930;-68
2022/01/02 09:24:56;;;;;;;6.60;5.00;;;;;;;9.64;68.70;98185.00;110246;1247;71364;-70
2022/01/02 09:27:25;;;;;;;7.50;4.70;;;;;;;9.73;68.25;98187.12;110250;1248;68914;-66
2022/01/02 09:29:53;;;;;;;7.30;4.70;;;;;;;9.86;67.53;98189.86;110161;1247;70018;-66
2022/01/02 09:32:22;;;;;;;7.10;4.60;;;;;;;9.89;67.32;98193.14;110016;1247;58890;-67
2022/01/02 09:34:51;;;;;;;6.40;4.60;;;;;;;9.88;67.88;98189.34;110184;1247;58913;-66
2022/01/02 09:37:20;;;;;;;5.50;4.20;;;;;;;9.94;68.05;98193.95;110020;1250;70768;-67
2022/01/02 09:39:49;;;;;;;9.00;6.20;;;;;;;10.02;67.71;98186.34;110036;1248;68681;-67
2022/01/02 09:42:18;;;;;;;6.80;4.90;;;;;;;10.07;68.24;98187.95;109968;1250;67742;-67
2022/01/02 09:44:49;;;;;;;8.50;4.40;;;;;;;10.13;68.41;98185.67;110056;1250;58870;-66
2022/01/02 09:47:20;;;;;;;8.00;4.70;;;;;;;10.32;68.38;98189.29;109790;1250;58936;-67
2022/01/02 09:49:50;;;;;;;9.70;6.90;;;;;;;11.09;66.02;98179.35;110018;1250;70529;-67
2022/01/02 09:52:18;;;;;;;8.00;6.10;;;;;;;11.75;65.63;98172.15;109883;1250;68673;-67
2022/01/02 09:54:47;;;;;;;7.90;5.80;;;;;;;13.00;63.62;98168.71;109925;1250;68667;-67
2022/01/02 09:57:19;;;;;;;6.90;4.60;;;;;;;13.69;60.63;98169.26;110003;1250;58856;-68
2022/01/02 09:59:48;;;;;;;7.20;4.90;;;;;;;13.84;59.86;98170.91;109911;1250;58968;-67
2022/01/02 10:02:17;;;;;;;7.80;4.90;;;;;;;13.98;59.58;98171.14;110024;1250;71000;-66
2022/01/02 10:04:47;;;;;;;10.90;5.90;;;;;;;14.51;59.74;98174.70;110032;1250;68623;-66
2022/01/02 10:07:31;;;;;;;7.20;5.50;;;;;;;14.57;57.65;98170.52;109936;1250;70164;-68
2022/01/02 10:10:12;;;;;;;7.10;5.20;;;;;;;14.32;56.49;98168.02;110085;1248;58912;-69
2022/01/02 10:12:41;;;;;;;7.80;6.60;;;;;;;13.97;57.73;98165.75;109946;1250;58835;-66
2022/01/02 10:15:14;;;;;;;6.50;4.40;;;;;;;13.69;58.48;98160.64;110138;1248;70432;-68
2022/01/02 10:18:07;;;;;;;7.10;5.90;;;;;;;13.45;58.74;98156.24;110174;1247;67798;-68
2022/01/02 10:20:39;;;;;;;5.30;3.90;;;;;;;13.18;59.54;98160.30;110104;1248;69561;-69
2022/01/02 10:23:20;;;;;;;9.40;7.10;;;;;;;13.06;59.50;98157.79;110167;1247;58901;-68
2022/01/02 10:25:55;;;;;;;8.70;7.10;;;;;;;12.86;59.12;98154.02;110099;1249;58839;-69
2022/01/02 10:28:41;;;;;;;10.00;7.20;;;;;;;12.49;58.93;98153.20;109904;1250;69872;-67
2022/01/02 10:31:14;;;;;;;6.60;4.70;;;;;;;12.05;60.43;98153.60;110210;1247;67970;-66
2022/01/02 10:33:55;;;;;;;8.20;6.50;;;;;;;12.12;60.92;98153.29;109844;1250;69499;-67
2022/01/02 10:36:28;;;;;;;7.90;6.00;;;;;;;12.27;60.20;98152.67;109848;1250;59299;-66
2022/01/02 10:39:20;;;;;;;8.10;5.80;;;;;;;12.45;61.02;98158.04;110133;1247;58961;-69
2022/01/02 10:41:51;;;;;;;10.00;7.60;;;;;;;12.50;60.25;98154.73;110063;1249;70858;-67
2022/01/02 10:44:33;;;;;;;9.00;6.50;;;;;;;12.25;60.60;98151.70;110125;1249;68100;-71
2022/01/02 10:47:08;;;;;;;8.50;6.40;;;;;;;12.03;60.89;98144.98;109998;1249;70647;-66
2022/01/02 10:50:05;;;;;;;9.40;7.20;;;;;;;12.04;60.55;98145.70;110148;1247;59326;-69
2022/01/02 10:52:35;;;;;;;9.00;6.90;;;;;;;12.10;61.27;98140.38;110089;1249;58931;-68
2022/01/02 10:55:13;;;;;;;8.20;6.00;;;;;;;12.34;60.00;98136.66;110089;1248;71382;-68
2022/01/02 10:57:43;;;;;;;8.70;5.90;;;;;;;12.89;59.33;98135.23;110138;1250;68659;-69
2022/01/02 11:00:14;;;;;;;7.30;5.50;;;;;;;13.05;58.13;98133.44;110097;1250;69593;-68
2022/01/02 11:02:45;;;;;;;7.20;5.30;;;;;;;13.00;58.39;98131.29;110207;1248;58880;-69
2022/01/02 11:05:16;;;;;;;6.80;4.90;;;;;;;12.88;58.74;98130.27;110059;1250;58891;-67
2022/01/02 11:07:49;;;;;;;7.60;5.10;;;;;;;12.81;58.50;98133.70;110195;1250;69967;-69
2022/01/02 11:10:21;;;;;;;7.60;5.10;;;;;;;12.63;58.94;98126.91;109977;1248;68784;-69
2022/01/02 11:12:51;;;;;;;7.60;5.80;;;;;;;12.50;59.30;98125.71;110194;1247;69382;-69
2022/01/02 11:15:22;;;;;;;8.10;5.60;;;;;;;12.31;60.05;98126.02;110117;1249;58955;-70
2022/01/02 11:17:52;;;;;;;7.60;6.00;;;;;;;12.14;60.44;98124.70;110031;1250;58885;-69
2022/01/02 11:20:24;;;;;;;9.00;6.10;;;;;;;11.93;60.90;98127.34;110139;1247;70759;-68
2022/01/02 11:22:59;;;;;;;7.60;5.80;;;;;;;11.70;61.44;98122.00;110155;1249;68221;-69
2022/01/02 11:25:36;;;;;;;6.70;5.00;;;;;;;11.57;62.05;98115.05;110207;1247;69516;-68
2022/01/02 11:28:22;;;;;;;9.10;6.00;;;;;;;11.37;61.95;98110.21;110110;1248;58901;-71
2022/01/02 11:30:54;;;;;;;7.30;5.80;;;;;;;11.03;63.06;98104.71;110132;1249;58953;-72
2022/01/02 11:33:35;;;;;;;6.20;4.70;;;;;;;10.89;63.84;98101.81;110170;1250;70968;-70
2022/01/02 11:36:22;;;;;;;7.00;5.90;;;;;;;10.85;64.35;98100.14;110171;1249;68575;-68
2022/01/02 11:39:06;;;;;;;7.70;5.60;;;;;;;10.84;64.40;98097.91;110143;1249;68664;-69
2022/01/02 11:41:40;;;;;;;7.90;5.50;;;;;;;10.85;63.70;98095.23;110153;1250;58885;-69
2022/01/02 11:44:14;;;;;;;7.90;5.80;;;;;;;10.78;63.46;98091.16;110100;1249;58965;-69
2022/01/02 11:46:59;;;;;;;8.20;5.80;;;;;;;10.68;63.65;98088.10;110173;1248;71020;-69
2022/01/02 11:49:39;;;;;;;9.50;6.70;;;;;;;10.60;63.96;98082.52;110120;1250;68972;-68
2022/01/02 11:52:09;;;;;;;8.70;6.50;;;;;;;10.47;64.24;98075.09;110059;1250;68671;-67